sensor_id;sensor_type;location;lat;lon;timestamp;pressure;altitude;pressure_sealevel;temperature;humidity
75497;BME280;64074;47.540;19.072;2022-11-10T00:01:19;100935.31;;;10.50;87.81
75497;BME280;64074;47.540;19.072;2022-11-10T00:04:51;100935.06;;;10.46;87.99
75497;BME280;64074;47.540;19.072;2022-11-10T00:08:17;100935.34;;;10.45;88.35
75497;BME280;64074;47.540;19.072;2022-11-10T00:11:46;100935.63;;;10.43;88.19
75497;BME280;64074;47.540;19.072;2022-11-10T00:15:23;100939.97;;;10.44;88.49
75497;BME280;64074;47.540;19.072;2022-11-10T00:19:06;100946.69;;;10.52;88.32
75497;BME280;64074;47.540;19.072;2022-11-10T00:22:43;100951.56;;;10.50;87.94
75497;BME280;64074;47.540;19.072;2022-11-10T00:26:20;100950.84;;;10.34;88.66
75497;BME280;64074;47.540;19.072;2022-11-10T00:29:44;100957.88;;;10.35;88.69
75497;BME280;64074;47.540;19.072;2022-11-10T00:33:08;100955.41;;;10.44;88.60
75497;BME280;64074;47.540;19.072;2022-11-10T00:36:33;100954.59;;;10.38;88.78
75497;BME280;64074;47.540;19.072;2022-11-10T00:39:59;100955.69;;;10.42;88.95
75497;BME280;64074;47.540;19.072;2022-11-10T00:43:32;100957.63;;;10.32;89.31
75497;BME280;64074;47.540;19.072;2022-11-10T00:47:17;100959.81;;;10.30;89.55
75497;BME280;64074;47.540;19.072;2022-11-10T00:51:33;100956.50;;;10.43;88.88
75497;BME280;64074;47.540;19.072;2022-11-10T00:54:59;100952.69;;;10.39;89.33
75497;BME280;64074;47.540;19.072;2022-11-10T00:58:21;100953.22;;;10.46;88.80
75497;BME280;64074;47.540;19.072;2022-11-10T01:01:45;100955.66;;;10.47;89.52
75497;BME280;64074;47.540;19.072;2022-11-10T01:05:11;100950.25;;;10.47;89.21
75497;BME280;64074;47.540;19.072;2022-11-10T01:08:36;100951.03;;;10.53;88.99
75497;BME280;64074;47.540;19.072;2022-11-10T01:12:08;100950.22;;;10.53;88.70
75497;BME280;64074;47.540;19.072;2022-11-10T01:15:52;100944.03;;;10.42;88.95
75497;BME280;64074;47.540;19.072;2022-11-10T01:19:22;100944.53;;;10.49;88.79
75497;BME280;64074;47.540;19.072;2022-11-10T01:22:49;100945.06;;;10.51;89.03
75497;BME280;64074;47.540;19.072;2022-11-10T01:26:20;100942.63;;;10.50;88.63
75497;BME280;64074;47.540;19.072;2022-11-10T01:29:47;100939.94;;;10.50;89.03
75497;BME280;64074;47.540;19.072;2022-11-10T01:33:19;100943.41;;;10.55;88.79
75497;BME280;64074;47.540;19.072;2022-11-10T01:37:00;100948.00;;;10.60;88.92
75497;BME280;64074;47.540;19.072;2022-11-10T01:40:36;100957.47;;;10.62;88.69
75497;BME280;64074;47.540;19.072;2022-11-10T01:44:23;100949.03;;;10.64;88.50
75497;BME280;64074;47.540;19.072;2022-11-10T01:48:06;100949.84;;;10.64;88.35
75497;BME280;64074;47.540;19.072;2022-11-10T01:55:14;100955.03;;;10.61;88.71
75497;BME280;64074;47.540;19.072;2022-11-10T01:59:00;100947.41;;;10.63;88.29
75497;BME280;64074;47.540;19.072;2022-11-10T02:06:45;100960.22;;;10.57;88.61
75497;BME280;64074;47.540;19.072;2022-11-10T02:10:15;100951.88;;;10.48;89.40
75497;BME280;64074;47.540;19.072;2022-11-10T02:13:43;100959.75;;;10.40;89.28
75497;BME280;64074;47.540;19.072;2022-11-10T02:17:06;100959.25;;;10.33;89.54
75497;BME280;64074;47.540;19.072;2022-11-10T02:20:32;100961.44;;;10.31;89.93
75497;BME280;64074;47.540;19.072;2022-11-10T02:23:58;100960.94;;;10.24;90.22
75497;BME280;64074;47.540;19.072;2022-11-10T02:27:28;100967.41;;;10.28;90.19
75497;BME280;64074;47.540;19.072;2022-11-10T02:31:18;100970.94;;;10.28;90.23
75497;BME280;64074;47.540;19.072;2022-11-10T02:35:12;100968.19;;;10.33;89.85
75497;BME280;64074;47.540;19.072;2022-11-10T02:38:44;100970.09;;;10.33;89.68
75497;BME280;64074;47.540;19.072;2022-11-10T02:42:07;100979.31;;;10.32;89.68
75497;BME280;64074;47.540;19.072;2022-11-10T02:45:35;100980.63;;;10.39;89.56
75497;BME280;64074;47.540;19.072;2022-11-10T02:49:07;100980.03;;;10.53;88.96
75497;BME280;64074;47.540;19.072;2022-11-10T02:52:41;100983.53;;;10.58;88.35
75497;BME280;64074;47.540;19.072;2022-11-10T02:56:24;100980.25;;;10.61;88.28
75497;BME280;64074;47.540;19.072;2022-11-10T03:00:28;100991.66;;;10.58;88.66
75497;BME280;64074;47.540;19.072;2022-11-10T03:04:06;100994.34;;;10.63;88.56
75497;BME280;64074;47.540;19.072;2022-11-10T03:07:30;100996.75;;;10.65;88.31
75497;BME280;64074;47.540;19.072;2022-11-10T03:10:55;101000.28;;;10.65;87.82
75497;BME280;64074;47.540;19.072;2022-11-10T03:14:19;101003.06;;;10.55;88.17
75497;BME280;64074;47.540;19.072;2022-11-10T03:17:42;101015.53;;;10.56;87.76
75497;BME280;64074;47.540;19.072;2022-11-10T03:21:08;101009.81;;;10.58;87.98
75497;BME280;64074;47.540;19.072;2022-11-10T03:24:37;101008.72;;;10.59;87.60
75497;BME280;64074;47.540;19.072;2022-11-10T03:28:12;101005.25;;;10.53;87.61
75497;BME280;64074;47.540;19.072;2022-11-10T03:31:50;101018.53;;;10.50;88.09
75497;BME280;64074;47.540;19.072;2022-11-10T03:35:14;101018.56;;;10.39;87.84
75497;BME280;64074;47.540;19.072;2022-11-10T03:38:43;101014.84;;;10.25;88.28
75497;BME280;64074;47.540;19.072;2022-11-10T03:42:15;101019.72;;;10.18;89.12
75497;BME280;64074;47.540;19.072;2022-11-10T03:45:46;101014.84;;;10.10;89.21
75497;BME280;64074;47.540;19.072;2022-11-10T03:49:27;101023.81;;;10.00;89.23
75497;BME280;64074;47.540;19.072;2022-11-10T03:52:53;101027.63;;;9.89;89.63
75497;BME280;64074;47.540;19.072;2022-11-10T03:56:21;101024.94;;;9.94;89.63
75497;BME280;64074;47.540;19.072;2022-11-10T03:59:50;101033.56;;;10.01;89.23
75497;BME280;64074;47.540;19.072;2022-11-10T04:03:38;101037.34;;;10.10;88.78
75497;BME280;64074;47.540;19.072;2022-11-10T04:07:12;101041.13;;;10.20;88.32
75497;BME280;64074;47.540;19.072;2022-11-10T04:11:11;101035.69;;;10.30;88.13
75497;BME280;64074;47.540;19.072;2022-11-10T04:14:45;101040.00;;;10.36;88.03
75497;BME280;64074;47.540;19.072;2022-11-10T04:18:53;101049.50;;;10.33;88.07
75497;BME280;64074;47.540;19.072;2022-11-10T04:22:32;101044.88;;;10.39;87.47
75497;BME280;64074;47.540;19.072;2022-11-10T04:26:18;101049.75;;;10.47;87.48
75497;BME280;64074;47.540;19.072;2022-11-10T04:29:52;101055.19;;;10.42;87.59
75497;BME280;64074;47.540;19.072;2022-11-10T04:33:22;101057.31;;;10.50;87.13
75497;BME280;64074;47.540;19.072;2022-11-10T04:36:48;101063.03;;;10.43;86.90
75497;BME280;64074;47.540;19.072;2022-11-10T04:40:14;101057.88;;;10.47;87.14
75497;BME280;64074;47.540;19.072;2022-11-10T04:44:01;101059.47;;;10.53;86.86
75497;BME280;64074;47.540;19.072;2022-11-10T04:47:34;101057.81;;;10.57;86.61
75497;BME280;64074;47.540;19.072;2022-11-10T04:51:13;101060.28;;;10.54;86.36
75497;BME280;64074;47.540;19.072;2022-11-10T04:54:51;101060.81;;;10.56;86.33
75497;BME280;64074;47.540;19.072;2022-11-10T04:58:22;101069.81;;;10.41;86.90
75497;BME280;64074;47.540;19.072;2022-11-10T05:01:58;101068.44;;;10.48;86.81
75497;BME280;64074;47.540;19.072;2022-11-10T05:05:33;101081.72;;;10.50;86.68
75497;BME280;64074;47.540;19.072;2022-11-10T05:09:04;101093.66;;;10.49;86.90
75497;BME280;64074;47.540;19.072;2022-11-10T05:12:29;101098.28;;;10.43;86.85
75497;BME280;64074;47.540;19.072;2022-11-10T05:15:56;101091.78;;;10.44;87.11
75497;BME280;64074;47.540;19.072;2022-11-10T05:19:38;101093.09;;;10.52;86.74
75497;BME280;64074;47.540;19.072;2022-11-10T05:23:15;101091.69;;;10.60;86.68
75497;BME280;64074;47.540;19.072;2022-11-10T05:27:05;101103.06;;;10.62;86.69
75497;BME280;64074;47.540;19.072;2022-11-10T05:30:46;101109.59;;;10.66;86.33
75497;BME280;64074;47.540;19.072;2022-11-10T05:34:10;101109.31;;;10.62;86.31
75497;BME280;64074;47.540;19.072;2022-11-10T05:37:39;101114.47;;;10.69;85.89
75497;BME280;64074;47.540;19.072;2022-11-10T05:41:04;101122.88;;;10.67;86.06
75497;BME280;64074;47.540;19.072;2022-11-10T05:44:32;101131.81;;;10.68;86.07
75497;BME280;64074;47.540;19.072;2022-11-10T05:48:08;101135.06;;;10.70;85.66
75497;BME280;64074;47.540;19.072;2022-11-10T05:51:56;101145.91;;;10.65;85.34
75497;BME280;64074;47.540;19.072;2022-11-10T05:55:28;101140.50;;;10.70;85.03
75497;BME280;64074;47.540;19.072;2022-11-10T05:59:09;101148.31;;;10.82;84.99
75497;BME280;64074;47.540;19.072;2022-11-10T06:03:13;101155.63;;;10.81;85.17
75497;BME280;64074;47.540;19.072;2022-11-10T06:06:44;101159.22;;;10.71;84.41
75497;BME280;64074;47.540;19.072;2022-11-10T06:10:11;101162.44;;;10.73;84.54
75497;BME280;64074;47.540;19.072;2022-11-10T06:13:35;101164.34;;;10.78;84.18
75497;BME280;64074;47.540;19.072;2022-11-10T06:17:05;101171.38;;;10.79;83.90
75497;BME280;64074;47.540;19.072;2022-11-10T06:20:36;101180.06;;;10.76;84.16
75497;BME280;64074;47.540;19.072;2022-11-10T06:23:59;101186.25;;;10.87;83.63
75497;BME280;64074;47.540;19.072;2022-11-10T06:27:28;101196.31;;;10.86;83.92
75497;BME280;64074;47.540;19.072;2022-11-10T06:31:06;101200.34;;;10.99;83.55
75497;BME280;64074;47.540;19.072;2022-11-10T06:34:37;101202.50;;;11.02;83.26
75497;BME280;64074;47.540;19.072;2022-11-10T06:38:10;101208.50;;;10.89;83.16
75497;BME280;64074;47.540;19.072;2022-11-10T06:41:39;101207.94;;;11.02;82.55
75497;BME280;64074;47.540;19.072;2022-11-10T06:45:05;101216.09;;;10.97;82.33
75497;BME280;64074;47.540;19.072;2022-11-10T06:48:31;101209.78;;;11.12;82.35
75497;BME280;64074;47.540;19.072;2022-11-10T06:51:54;101221.44;;;11.22;81.89
75497;BME280;64074;47.540;19.072;2022-11-10T06:55:27;101235.00;;;11.22;81.62
75497;BME280;64074;47.540;19.072;2022-11-10T06:58:55;101238.25;;;11.24;81.37
75497;BME280;64074;47.540;19.072;2022-11-10T07:02:25;101246.94;;;11.21;81.49
75497;BME280;64074;47.540;19.072;2022-11-10T07:19:52;101251.59;;;11.10;82.25
75497;BME280;64074;47.540;19.072;2022-11-10T07:23:16;101264.09;;;11.06;81.81
75497;BME280;64074;47.540;19.072;2022-11-10T07:27:57;101276.84;;;11.01;82.40
75497;BME280;64074;47.540;19.072;2022-11-10T07:31:53;101273.56;;;11.19;81.36
75497;BME280;64074;47.540;19.072;2022-11-10T07:35:35;101280.34;;;11.22;81.72
75497;BME280;64074;47.540;19.072;2022-11-10T07:44:19;101293.28;;;11.40;80.90
75497;BME280;64074;47.540;19.072;2022-11-10T07:48:01;101299.03;;;11.33;81.46
75497;BME280;64074;47.540;19.072;2022-11-10T07:51:42;101300.34;;;11.46;81.43
75497;BME280;64074;47.540;19.072;2022-11-10T07:55:13;101295.16;;;11.50;80.56
75497;BME280;64074;47.540;19.072;2022-11-10T07:59:44;101297.38;;;11.43;80.70
75497;BME280;64074;47.540;19.072;2022-11-10T08:08:08;101307.34;;;11.57;80.43
75497;BME280;64074;47.540;19.072;2022-11-10T08:12:24;101319.28;;;11.66;79.64
75497;BME280;64074;47.540;19.072;2022-11-10T08:20:42;101326.03;;;11.74;79.05
75497;BME280;64074;47.540;19.072;2022-11-10T08:24:46;101334.25;;;11.54;79.64
75497;BME280;64074;47.540;19.072;2022-11-10T08:34:11;101339.28;;;11.96;77.78
75497;BME280;64074;47.540;19.072;2022-11-10T08:38:22;101351.81;;;11.87;77.46
75497;BME280;64074;47.540;19.072;2022-11-10T08:42:02;101353.31;;;12.08;77.24
75497;BME280;64074;47.540;19.072;2022-11-10T08:45:26;101358.63;;;11.79;76.89
75497;BME280;64074;47.540;19.072;2022-11-10T08:49:36;101355.06;;;11.94;76.44
75497;BME280;64074;47.540;19.072;2022-11-10T08:53:58;101357.22;;;11.87;78.07
75497;BME280;64074;47.540;19.072;2022-11-10T08:57:21;101369.47;;;11.84;77.36
75497;BME280;64074;47.540;19.072;2022-11-10T09:00:49;101390.97;;;11.81;76.61
75497;BME280;64074;47.540;19.072;2022-11-10T09:04:21;101388.50;;;11.84;76.55
75497;BME280;64074;47.540;19.072;2022-11-10T09:08:31;101397.47;;;11.85;76.30
75497;BME280;64074;47.540;19.072;2022-11-10T09:12:46;101404.25;;;11.87;75.79
75497;BME280;64074;47.540;19.072;2022-11-10T09:16:12;101405.63;;;11.90;75.69
75497;BME280;64074;47.540;19.072;2022-11-10T09:30:04;101419.22;;;12.39;74.93
75497;BME280;64074;47.540;19.072;2022-11-10T09:33:32;101422.41;;;12.02;76.06
75497;BME280;64074;47.540;19.072;2022-11-10T09:42:34;101419.34;;;12.19;76.02
75497;BME280;64074;47.540;19.072;2022-11-10T09:46:22;101417.16;;;12.21;76.17
75497;BME280;64074;47.540;19.072;2022-11-10T09:54:40;101432.44;;;12.07;75.69
75497;BME280;64074;47.540;19.072;2022-11-10T10:24:37;101434.84;;;12.68;73.66
75497;BME280;64074;47.540;19.072;2022-11-10T10:42:32;101445.84;;;13.26;72.07
75497;BME280;64074;47.540;19.072;2022-11-10T10:58:04;101445.19;;;13.05;72.77
75497;BME280;64074;47.540;19.072;2022-11-10T11:01:59;101446.22;;;13.14;72.67
75497;BME280;64074;47.540;19.072;2022-11-10T11:06:23;101453.16;;;13.30;72.00
75497;BME280;64074;47.540;19.072;2022-11-10T11:10:43;101448.13;;;13.47;70.75
75497;BME280;64074;47.540;19.072;2022-11-10T11:18:52;101473.25;;;13.39;71.41
75497;BME280;64074;47.540;19.072;2022-11-10T11:22:55;101473.69;;;12.78;73.40
75497;BME280;64074;47.540;19.072;2022-11-10T11:26:47;101475.63;;;12.73;73.14
75497;BME280;64074;47.540;19.072;2022-11-10T11:35:25;101499.66;;;12.55;74.74
75497;BME280;64074;47.540;19.072;2022-11-10T11:44:08;101496.16;;;12.50;73.96
75497;BME280;64074;47.540;19.072;2022-11-10T12:27:17;101508.78;;;12.25;75.63
75497;BME280;64074;47.540;19.072;2022-11-10T12:31:42;101519.31;;;12.37;75.73
75497;BME280;64074;47.540;19.072;2022-11-10T12:37:01;101526.72;;;12.26;76.40
75497;BME280;64074;47.540;19.072;2022-11-10T12:42:02;101527.69;;;12.51;75.22
75497;BME280;64074;47.540;19.072;2022-11-10T12:56:38;101553.34;;;12.29;76.01
75497;BME280;64074;47.540;19.072;2022-11-10T13:00:30;101544.13;;;12.20;75.04
75497;BME280;64074;47.540;19.072;2022-11-10T13:04:05;101546.78;;;12.36;74.65
75497;BME280;64074;47.540;19.072;2022-11-10T13:34:34;101557.94;;;12.39;73.92
75497;BME280;64074;47.540;19.072;2022-11-10T13:39:24;101562.28;;;12.35;74.43
75497;BME280;64074;47.540;19.072;2022-11-10T13:47:54;101569.91;;;12.33;75.09
75497;BME280;64074;47.540;19.072;2022-11-10T14:01:26;101586.28;;;12.08;75.40
75497;BME280;64074;47.540;19.072;2022-11-10T14:25:13;101612.13;;;12.15;76.37
75497;BME280;64074;47.540;19.072;2022-11-10T14:28:53;101613.19;;;12.09;76.31
75497;BME280;64074;47.540;19.072;2022-11-10T14:33:16;101617.28;;;12.07;76.25
75497;BME280;64074;47.540;19.072;2022-11-10T14:44:10;101622.72;;;12.01;76.93
75497;BME280;64074;47.540;19.072;2022-11-10T14:54:14;101622.75;;;11.96;77.57
75497;BME280;64074;47.540;19.072;2022-11-10T15:02:46;101632.00;;;11.90;77.18
75497;BME280;64074;47.540;19.072;2022-11-10T15:06:51;101634.13;;;11.88;77.80
75497;BME280;64074;47.540;19.072;2022-11-10T15:17:08;101647.47;;;11.80;78.26
75497;BME280;64074;47.540;19.072;2022-11-10T15:21:17;101649.91;;;11.81;78.59
75497;BME280;64074;47.540;19.072;2022-11-10T15:25:45;101649.06;;;11.76;78.18
75497;BME280;64074;47.540;19.072;2022-11-10T15:29:56;101658.31;;;11.75;78.77
75497;BME280;64074;47.540;19.072;2022-11-10T15:34:39;101665.38;;;11.76;78.30
75497;BME280;64074;47.540;19.072;2022-11-10T15:43:31;101675.97;;;11.72;79.12
75497;BME280;64074;47.540;19.072;2022-11-10T15:47:29;101689.00;;;11.70;79.04
75497;BME280;64074;47.540;19.072;2022-11-10T15:51:39;101696.88;;;11.66;78.91
75497;BME280;64074;47.540;19.072;2022-11-10T16:00:11;101701.75;;;11.64;79.11
75497;BME280;64074;47.540;19.072;2022-11-10T16:04:57;101715.31;;;11.54;79.73
75497;BME280;64074;47.540;19.072;2022-11-10T16:08:47;101709.06;;;11.59;79.49
75497;BME280;64074;47.540;19.072;2022-11-10T16:34:52;101743.00;;;11.46;80.73
75497;BME280;64074;47.540;19.072;2022-11-10T16:39:08;101746.53;;;11.47;79.92
75497;BME280;64074;47.540;19.072;2022-11-10T16:43:27;101751.97;;;11.47;80.53
75497;BME280;64074;47.540;19.072;2022-11-10T16:48:01;101761.19;;;11.46;80.10
75497;BME280;64074;47.540;19.072;2022-11-10T17:10:26;101799.16;;;11.35;81.02
